createdAt,value
2018-11-20T00:02:47.568Z,16.07
2018-11-20T00:05:47.979Z,20.87
2018-11-20T00:08:37.698Z,15.30
2018-11-20T00:11:35.483Z,18.13
2018-11-20T00:14:22.840Z,21.60
2018-11-20T00:17:07.739Z,23.57
2018-11-20T00:19:47.771Z,21.27
2018-11-20T00:22:35.660Z,23.87
2018-11-20T00:25:26.061Z,19.53
2018-11-20T00:28:23.650Z,21.73
2018-11-20T00:31:13.060Z,20.73
2018-11-20T00:34:00.448Z,19.47
2018-11-20T00:36:48.844Z,18.30
2018-11-20T00:39:50.144Z,21.40
2018-11-20T00:42:38.915Z,21.40
2018-11-20T00:45:19.299Z,20.60
2018-11-20T00:48:07.556Z,19.47
2018-11-20T00:50:47.527Z,22.27
2018-11-20T00:53:54.883Z,21.20
2018-11-20T00:57:04.217Z,23.77
2018-11-20T00:59:44.046Z,21.67
2018-11-20T01:02:48.767Z,20.13
2018-11-20T01:05:37.143Z,22.30
2018-11-20T01:08:25.699Z,22.13
2018-11-20T01:11:06.915Z,23.30
2018-11-20T01:14:00.208Z,19.53
2018-11-20T01:16:43.383Z,20.17
2018-11-20T01:19:41.666Z,20.13
2018-11-20T01:22:31.049Z,22.30
2018-11-20T01:25:11.238Z,18.97
2018-11-20T01:27:59.534Z,23.10
2018-11-20T01:30:47.796Z,22.17
2018-11-20T01:33:35.811Z,23.47
2018-11-20T01:36:34.631Z,23.20
2018-11-20T01:39:33.790Z,26.90
2018-11-20T01:42:21.875Z,20.93
2018-11-20T01:45:15.923Z,23.67
2018-11-20T01:48:00.510Z,25.73
2018-11-20T01:50:48.564Z,18.07
2018-11-20T01:53:32.629Z,26.30
2018-11-20T01:56:20.694Z,27.00
2018-11-20T01:59:08.023Z,25.93
2018-11-20T02:01:56.137Z,26.00
2018-11-20T02:04:54.559Z,24.40
2018-11-20T02:07:42.710Z,24.37
2018-11-20T02:10:32.099Z,22.73
2018-11-20T02:14:03.667Z,24.33
2018-11-20T02:17:02.888Z,26.53
2018-11-20T02:19:50.798Z,28.13
2018-11-20T02:22:42.827Z,25.00
2018-11-20T02:25:26.428Z,28.00
2018-11-20T02:28:14.383Z,24.87
2018-11-20T02:31:15.739Z,28.13
2018-11-20T02:34:03.926Z,29.87
2018-11-20T02:36:52.018Z,26.13
2018-11-20T02:39:39.913Z,27.40
2018-11-20T02:42:35.388Z,26.83
2018-11-20T02:45:24.057Z,27.10
2018-11-20T02:48:16.046Z,27.13
2018-11-20T02:51:11.387Z,26.30
2018-11-20T02:53:59.402Z,25.90
2018-11-20T02:56:49.448Z,26.80
2018-11-20T02:59:37.214Z,24.90
2018-11-20T03:02:25.621Z,29.07
2018-11-20T03:05:33.223Z,30.87
2018-11-20T03:08:28.668Z,26.53
2018-11-20T03:11:24.234Z,21.27
2018-11-20T03:14:16.475Z,28.57
2018-11-20T03:17:04.701Z,32.07
2018-11-20T03:20:09.431Z,27.90
2018-11-20T03:22:59.094Z,28.30
2018-11-20T03:26:07.879Z,29.03
2018-11-20T03:29:11.191Z,31.23
2018-11-20T03:31:53.774Z,30.00
2018-11-20T03:34:42.119Z,30.83
2018-11-20T03:37:30.501Z,30.80
2018-11-20T03:40:22.537Z,29.37
2018-11-20T03:43:11.870Z,30.63
2018-11-20T03:46:00.091Z,29.03
2018-11-20T03:48:48.267Z,29.17
2018-11-20T03:51:37.701Z,31.63
2018-11-20T03:54:24.851Z,28.57
2018-11-20T03:57:17.934Z,26.67
2018-11-20T04:00:07.335Z,28.77
2018-11-20T04:02:53.116Z,33.30
2018-11-20T04:05:39.463Z,30.53
2018-11-20T04:08:27.335Z,34.43
2018-11-20T04:11:28.927Z,28.10
2018-11-20T04:14:10.973Z,26.80
2018-11-20T04:17:00.910Z,29.13
2018-11-20T04:19:49.178Z,29.63
2018-11-20T04:22:56.797Z,27.93
2018-11-20T04:26:01.236Z,29.63
2018-11-20T04:28:56.448Z,23.73
2018-11-20T04:32:16.893Z,27.83
2018-11-20T04:35:08.607Z,27.03
2018-11-20T04:37:57.984Z,26.10
2018-11-20T04:40:50.086Z,24.23
2018-11-20T04:43:39.460Z,27.00
2018-11-20T04:46:27.590Z,30.57
2018-11-20T04:49:35.711Z,28.43
2018-11-20T04:52:25.174Z,26.53
2018-11-20T04:55:20.594Z,36.33
2018-11-20T04:58:22.224Z,32.23
2018-11-20T05:01:10.593Z,32.57
2018-11-20T05:03:54.300Z,32.13
2018-11-20T05:06:35.159Z,27.63
2018-11-20T05:09:42.780Z,34.90
2018-11-20T05:12:30.942Z,31.10
2018-11-20T05:15:38.291Z,30.00
2018-11-20T05:18:26.576Z,30.50
2018-11-20T05:21:11.446Z,31.80
2018-11-20T05:24:00.425Z,29.90
2018-11-20T05:26:59.338Z,31.20
2018-11-20T05:30:04.143Z,26.13
2018-11-20T05:32:48.351Z,32.43
2018-11-20T05:35:48.712Z,26.87
2018-11-20T05:38:40.699Z,33.47
2018-11-20T05:41:35.816Z,33.40
2018-11-20T05:44:25.382Z,31.57
2018-11-20T05:47:13.295Z,24.37
2018-11-20T05:50:01.984Z,31.40
2018-11-20T05:52:49.774Z,27.17
2018-11-20T05:55:39.159Z,31.57
2018-11-20T05:58:28.541Z,30.70
2018-11-20T06:01:10.283Z,33.03
2018-11-20T06:04:02.825Z,30.87
2018-11-20T06:06:54.777Z,28.90
2018-11-20T06:09:43.045Z,27.40
2018-11-20T06:12:31.426Z,29.30
2018-11-20T06:15:23.771Z,29.67
2018-11-20T06:18:19.309Z,29.47
2018-11-20T06:21:07.466Z,35.90
2018-11-20T06:24:06.070Z,31.23
2018-11-20T06:27:01.264Z,29.57
2018-11-20T06:29:49.263Z,28.37
2018-11-20T06:32:50.670Z,29.40
2018-11-20T06:35:52.140Z,31.00
2018-11-20T06:38:37.681Z,29.10
2018-11-20T06:41:25.905Z,32.17
2018-11-20T06:44:13.937Z,31.50
2018-11-20T06:47:21.489Z,29.90
2018-11-20T06:50:09.694Z,31.57
2018-11-20T06:53:01.736Z,28.43
2018-11-20T06:56:00.949Z,29.50
2018-11-20T06:58:52.624Z,28.23
2018-11-20T07:01:44.698Z,25.77
2018-11-20T07:04:32.833Z,30.43
2018-11-20T07:07:25.326Z,27.73
2018-11-20T07:10:13.837Z,27.77
2018-11-20T07:13:02.082Z,31.13
2018-11-20T07:15:50.657Z,25.77
2018-11-20T07:18:38.775Z,29.40
2018-11-20T07:21:17.837Z,26.13
2018-11-20T07:24:05.987Z,25.80
2018-11-20T07:26:44.314Z,24.90
2018-11-20T07:29:32.596Z,25.93
2018-11-20T07:32:27.581Z,28.23
2018-11-20T07:35:26.751Z,28.43
2018-11-20T07:38:18.927Z,27.70
2018-11-20T07:41:00.235Z,26.73
2018-11-20T07:43:48.596Z,28.03
2018-11-20T07:46:36.513Z,26.23
2018-11-20T07:49:29.222Z,23.07
2018-11-20T07:52:17.558Z,25.70
2018-11-20T07:55:06.974Z,25.13
2018-11-20T07:57:54.804Z,24.90
2018-11-20T08:00:42.967Z,25.33
2018-11-20T08:03:33.846Z,27.80
2018-11-20T08:06:38.411Z,26.30
2018-11-20T08:09:36.728Z,23.23
2018-11-20T08:12:34.991Z,25.30
2018-11-20T08:15:29.987Z,26.03
2018-11-20T08:18:10.672Z,21.80
2018-11-20T08:21:01.505Z,20.13
2018-11-20T08:23:59.945Z,24.07
2018-11-20T08:26:52.636Z,20.50
2018-11-20T08:29:40.791Z,26.33
2018-11-20T08:32:28.802Z,17.37
2018-11-20T08:35:20.922Z,15.60
2018-11-20T08:38:08.859Z,25.63
2018-11-20T08:40:53.605Z,26.50
2018-11-20T08:43:44.788Z,23.37
2018-11-20T08:46:32.954Z,20.10
2018-11-20T08:49:22.416Z,22.90
2018-11-20T08:52:10.610Z,25.33
2018-11-20T08:54:58.688Z,24.30
2018-11-20T08:57:56.502Z,25.43
2018-11-20T09:00:37.336Z,19.70
2018-11-20T09:03:44.924Z,25.33
2018-11-20T09:06:40.134Z,24.03
2018-11-20T09:09:26.176Z,21.33
2018-11-20T09:12:13.998Z,25.47
2018-11-20T09:15:01.991Z,21.53
2018-11-20T09:17:42.561Z,20.87
2018-11-20T09:20:31.085Z,17.40
2018-11-20T09:23:35.870Z,24.63
2018-11-20T09:26:28.026Z,22.67
2018-11-20T09:29:35.436Z,18.03
2018-11-20T09:32:11.639Z,24.67
2018-11-20T09:35:03.810Z,21.63
2018-11-20T09:37:51.706Z,23.27
2018-11-20T09:41:12.842Z,21.60
2018-11-20T09:44:08.082Z,19.00
2018-11-20T09:47:06.652Z,23.07
2018-11-20T09:50:02.392Z,21.37
2018-11-20T09:52:59.639Z,23.70
2018-11-20T09:55:47.535Z,23.27
2018-11-20T09:58:42.802Z,23.67
2018-11-20T10:01:39.976Z,22.30
2018-11-20T10:04:27.934Z,23.37
2018-11-20T10:07:29.615Z,22.03
2018-11-20T10:10:28.076Z,22.27
2018-11-20T10:13:18.140Z,21.90
2018-11-20T10:16:16.490Z,20.93
2018-11-20T10:19:04.567Z,20.33
2018-11-20T10:21:52.596Z,20.63
2018-11-20T10:24:40.670Z,15.70
2018-11-20T10:27:29.103Z,22.77
2018-11-20T10:30:17.647Z,22.07
2018-11-20T10:33:06.291Z,20.37
2018-11-20T10:35:54.480Z,21.90
2018-11-20T10:38:43.938Z,19.50
2018-11-20T10:41:39.319Z,20.00
2018-11-20T10:44:23.045Z,21.83
2018-11-20T10:47:27.764Z,20.93
2018-11-20T10:50:15.991Z,20.73
2018-11-20T10:53:11.118Z,20.30
2018-11-20T10:56:03.551Z,22.17
2018-11-20T10:58:52.968Z,22.53
2018-11-20T11:01:41.435Z,19.63
2018-11-20T11:04:29.416Z,24.30
2018-11-20T11:07:18.905Z,19.77
2018-11-20T11:09:54.678Z,18.47
2018-11-20T11:12:43.175Z,20.53
2018-11-20T11:15:35.465Z,20.80
2018-11-20T11:18:30.649Z,24.37
2018-11-20T11:21:32.167Z,20.53
2018-11-20T11:24:24.288Z,18.37
2018-11-20T11:27:16.495Z,18.13
2018-11-20T11:30:12.393Z,20.73
2018-11-20T11:33:10.796Z,19.67
2018-11-20T11:35:54.141Z,21.60
2018-11-20T11:38:43.081Z,22.23
2018-11-20T11:41:38.230Z,23.47
2018-11-20T11:44:26.539Z,22.63
2018-11-20T11:47:14.978Z,21.17
2018-11-20T11:50:03.329Z,24.73
2018-11-20T11:52:52.762Z,22.23
2018-11-20T11:55:41.074Z,24.37
2018-11-20T11:58:27.998Z,24.77
2018-11-20T12:01:17.157Z,21.43
2018-11-20T12:03:56.776Z,23.90
2018-11-20T12:06:45.028Z,24.80
2018-11-20T12:09:46.299Z,25.30
2018-11-20T12:12:44.601Z,28.40
2018-11-20T12:15:35.763Z,26.83
2018-11-20T12:18:23.903Z,27.50
2018-11-20T12:21:10.755Z,25.80
2018-11-20T12:23:58.607Z,27.20
2018-11-20T12:27:04.429Z,24.23
2018-11-20T12:29:58.560Z,24.43
2018-11-20T12:32:53.255Z,27.17
2018-11-20T12:35:44.049Z,25.00
2018-11-20T12:38:33.880Z,26.83
2018-11-20T12:41:30.973Z,25.27
2018-11-20T12:44:18.165Z,25.33
2018-11-20T12:47:09.120Z,28.40
2018-11-20T12:50:26.246Z,26.40
2018-11-20T12:53:13.800Z,23.57
2018-11-20T12:55:58.491Z,21.90
2018-11-20T12:58:39.653Z,25.93
2018-11-20T13:01:45.916Z,27.90
2018-11-20T13:04:32.748Z,25.77
2018-11-20T13:07:40.764Z,28.77
2018-11-20T13:10:39.824Z,24.13
2018-11-20T13:13:34.096Z,24.27
2018-11-20T13:16:22.315Z,27.07
2018-11-20T13:19:22.685Z,24.90
2018-11-20T13:22:26.006Z,25.33
2018-11-20T13:25:32.702Z,26.90
2018-11-20T13:28:19.492Z,23.90
2018-11-20T13:31:07.367Z,21.73
2018-11-20T13:34:01.110Z,23.27
2018-11-20T13:36:48.326Z,25.80
2018-11-20T13:39:51.996Z,27.10
2018-11-20T13:42:32.465Z,26.40
2018-11-20T13:45:20.638Z,25.10
2018-11-20T13:48:14.591Z,23.27
2018-11-20T13:51:01.362Z,22.57
2018-11-20T13:53:55.612Z,23.77
2018-11-20T13:56:42.745Z,24.07
2018-11-20T13:59:33.002Z,21.67
2018-11-20T14:02:19.977Z,24.53
2018-11-20T14:05:06.888Z,24.17
2018-11-20T14:07:54.062Z,23.00
2018-11-20T14:10:44.296Z,22.63
2018-11-20T14:13:32.501Z,20.97
2018-11-20T14:16:19.393Z,22.00
2018-11-20T14:19:06.671Z,23.00
2018-11-20T14:22:01.479Z,21.90
2018-11-20T14:24:49.024Z,21.03
2018-11-20T14:27:28.574Z,22.27
2018-11-20T14:30:13.046Z,20.67
2018-11-20T14:33:10.110Z,18.33
2018-11-20T14:35:56.953Z,20.63
2018-11-20T14:38:53.079Z,21.67
2018-11-20T14:41:40.388Z,20.97
2018-11-20T14:44:31.109Z,20.27
2018-11-20T14:47:18.300Z,17.77
2018-11-20T14:49:56.852Z,18.17
2018-11-20T14:52:54.168Z,20.47
2018-11-20T14:55:45.073Z,20.30
2018-11-20T14:58:42.272Z,19.00
2018-11-20T15:01:36.926Z,21.53
2018-11-20T15:04:21.272Z,18.87
2018-11-20T15:06:55.153Z,15.47
2018-11-20T15:09:42.172Z,17.97
2018-11-20T15:12:33.315Z,17.50
2018-11-20T15:15:20.747Z,18.77
2018-11-20T15:18:02.809Z,21.23
2018-11-20T15:20:56.336Z,17.00
2018-11-20T15:23:52.595Z,19.70
2018-11-20T15:26:50.059Z,16.07
2018-11-20T15:29:27.522Z,16.97
2018-11-20T15:32:13.728Z,19.97
2018-11-20T15:35:17.171Z,18.83
2018-11-20T15:38:04.180Z,18.00
2018-11-20T15:41:01.545Z,19.80
2018-11-20T15:43:52.675Z,20.17
2018-11-20T15:46:40.302Z,22.27
2018-11-20T15:49:37.281Z,20.60
2018-11-20T15:52:37.444Z,17.20
2018-11-20T15:55:32.690Z,18.73
2018-11-20T15:58:19.613Z,17.63
2018-11-20T16:01:23.148Z,19.60
2018-11-20T16:04:13.885Z,17.93
2018-11-20T16:07:01.670Z,17.63
2018-11-20T16:09:42.565Z,18.53
2018-11-20T16:12:29.756Z,19.33
2018-11-20T16:15:31.971Z,18.37
2018-11-20T16:18:38.338Z,17.30
2018-11-20T16:21:23.646Z,16.77
2018-11-20T16:24:09.332Z,16.80
2018-11-20T16:26:57.573Z,16.93
2018-11-20T16:29:48.704Z,18.43
2018-11-20T16:32:35.425Z,19.77
2018-11-20T16:35:26.411Z,18.20
2018-11-20T16:38:05.093Z,19.30
2018-11-20T16:40:59.074Z,16.77
2018-11-20T16:43:49.996Z,17.70
2018-11-20T16:46:53.274Z,20.00
2018-11-20T16:49:47.484Z,21.20
2018-11-20T16:52:54.213Z,16.77
2018-11-20T16:55:51.528Z,19.70
2018-11-20T16:58:39.750Z,19.00
2018-11-20T17:01:27.996Z,20.83
2018-11-20T17:04:14.699Z,19.33
2018-11-20T17:07:02.017Z,22.00
2018-11-20T17:09:56.293Z,18.10
2018-11-20T17:12:43.331Z,21.20
2018-11-20T17:15:25.922Z,22.03
2018-11-20T17:18:17.178Z,22.63
2018-11-20T17:21:18.326Z,19.67
2018-11-20T17:24:06.601Z,20.17
2018-11-20T17:27:06.656Z,19.13
2018-11-20T17:29:53.505Z,19.13
2018-11-20T17:33:00.070Z,21.83
2018-11-20T17:35:53.806Z,20.10
2018-11-20T17:38:46.618Z,20.20
2018-11-20T17:41:38.121Z,20.03
2018-11-20T17:44:26.507Z,21.43
2018-11-20T17:47:13.237Z,20.97
2018-11-20T17:50:10.646Z,19.83
2018-11-20T17:52:57.728Z,19.37
2018-11-20T17:55:45.935Z,21.47
2018-11-20T17:58:32.868Z,19.23
2018-11-20T18:01:21.100Z,17.73
2018-11-20T18:04:12.035Z,16.97
2018-11-20T18:06:49.001Z,18.93
2018-11-20T18:09:43.030Z,19.37
2018-11-20T18:12:34.192Z,18.90
2018-11-20T18:15:21.074Z,20.93
2018-11-20T18:18:12.524Z,21.27
2018-11-20T18:21:06.417Z,19.97
2018-11-20T18:24:00.231Z,19.93
2018-11-20T18:26:52.272Z,21.90
2018-11-20T18:29:55.562Z,23.20
2018-11-20T18:32:42.725Z,21.67
2018-11-20T18:35:33.632Z,20.20
2018-11-20T18:38:30.935Z,23.13
2018-11-20T18:41:17.676Z,19.07
2018-11-20T18:44:04.504Z,20.00
2018-11-20T18:46:43.025Z,18.80
2018-11-20T18:49:34.051Z,18.87
2018-11-20T18:52:37.274Z,16.97
2018-11-20T18:55:20.845Z,19.47
2018-11-20T18:58:07.740Z,19.07
2018-11-20T19:00:54.878Z,18.83
2018-11-20T19:03:50.390Z,20.43
2018-11-20T19:06:56.716Z,22.50
2018-11-20T19:09:43.402Z,19.70
2018-11-20T19:12:30.386Z,16.90
2018-11-20T19:15:17.499Z,15.60
2018-11-20T19:18:04.470Z,20.50
2018-11-20T19:20:52.629Z,15.63
2018-11-20T19:23:52.705Z,16.27
2018-11-20T19:26:52.634Z,15.73
2018-11-20T19:29:43.621Z,17.97
2018-11-20T19:32:25.693Z,17.07
2018-11-20T19:35:02.803Z,16.23
2018-11-20T19:37:49.908Z,17.80
2018-11-20T19:40:40.934Z,16.30
2018-11-20T19:43:26.288Z,17.60
2018-11-20T19:46:08.431Z,18.40
2018-11-20T19:48:56.946Z,16.37
2018-11-20T19:52:00.781Z,14.37
2018-11-20T19:54:48.893Z,16.23
2018-11-20T19:57:35.969Z,18.07
2018-11-20T20:00:26.730Z,14.67
2018-11-20T20:03:26.711Z,16.00
2018-11-20T20:06:26.737Z,17.10
2018-11-20T20:09:15.783Z,16.00
2018-11-20T20:12:03.962Z,15.50
2018-11-20T20:14:55.129Z,15.67
2018-11-20T20:17:49.430Z,16.23
2018-11-20T20:20:44.272Z,17.93
2018-11-20T20:23:30.902Z,16.83
2018-11-20T20:26:17.942Z,16.50
2018-11-20T20:28:59.884Z,16.17
2018-11-20T20:31:58.097Z,15.20
2018-11-20T20:34:55.405Z,16.30
2018-11-20T20:37:42.670Z,16.23
2018-11-20T20:40:39.584Z,17.40
2018-11-20T20:43:26.518Z,16.27
2018-11-20T20:46:14.701Z,16.13
2018-11-20T20:49:01.385Z,18.03
2018-11-20T20:51:52.173Z,16.00
2018-11-20T20:54:39.136Z,14.10
2018-11-20T20:57:27.286Z,15.47
2018-11-20T21:00:19.405Z,17.93
2018-11-20T21:03:02.768Z,17.07
2018-11-20T21:05:50.949Z,16.77
2018-11-20T21:08:37.612Z,15.00
2018-11-20T21:11:43.729Z,15.67
2018-11-20T21:14:40.740Z,16.97
2018-11-20T21:17:27.481Z,18.00
2018-11-20T21:20:16.017Z,17.87
2018-11-20T21:23:13.137Z,16.80
2018-11-20T21:26:07.353Z,19.20
2018-11-20T21:28:55.843Z,15.60
2018-11-20T21:31:55.766Z,17.23
2018-11-20T21:35:02.172Z,18.20
2018-11-20T21:38:05.169Z,16.37
2018-11-20T21:41:10.504Z,17.40
2018-11-20T21:44:07.328Z,17.07
2018-11-20T21:46:55.539Z,17.40
2018-11-20T21:50:01.893Z,19.20
2018-11-20T21:52:48.835Z,18.60
2018-11-20T21:55:37.145Z,18.63
2018-11-20T21:58:25.233Z,19.57
2018-11-20T22:01:29.573Z,17.50
2018-11-20T22:04:36.220Z,17.87
2018-11-20T22:07:13.657Z,19.17
2018-11-20T22:10:14.227Z,20.53
2018-11-20T22:13:20.372Z,21.67
2018-11-20T22:16:07.240Z,18.77
2018-11-20T22:18:54.094Z,20.07
2018-11-20T22:21:51.468Z,18.50
2018-11-20T22:24:45.409Z,20.67
2018-11-20T22:27:52.020Z,20.60
2018-11-20T22:30:42.874Z,21.87
2018-11-20T22:33:29.909Z,21.83
2018-11-20T22:36:07.099Z,20.50
2018-11-20T22:39:00.929Z,19.23
2018-11-20T22:41:47.634Z,17.97
2018-11-20T22:44:48.067Z,19.50
2018-11-20T22:47:42.184Z,20.53
2018-11-20T22:50:39.506Z,24.77
2018-11-20T22:53:20.542Z,24.60
2018-11-20T22:56:14.739Z,19.63
2018-11-20T22:58:54.841Z,17.60
2018-11-20T23:01:37.713Z,20.33
2018-11-20T23:04:24.437Z,22.67
2018-11-20T23:07:11.735Z,18.63
2018-11-20T23:09:40.859Z,20.90
2018-11-20T23:12:09.989Z,19.13
2018-11-20T23:14:39.132Z,18.57
2018-11-20T23:17:08.224Z,20.00
2018-11-20T23:19:37.314Z,21.77
2018-11-20T23:22:06.479Z,20.80
2018-11-20T23:24:35.572Z,22.53
2018-11-20T23:27:05.100Z,22.73
2018-11-20T23:29:34.243Z,22.87
2018-11-20T23:32:03.721Z,23.97
2018-11-20T23:34:32.822Z,25.27
2018-11-20T23:37:01.966Z,23.20
2018-11-20T23:39:31.052Z,23.23
2018-11-20T23:42:00.189Z,24.63
2018-11-20T23:44:29.644Z,22.80
2018-11-20T23:46:58.755Z,23.00
2018-11-20T23:49:27.856Z,23.93
2018-11-20T23:51:57.024Z,23.40
2018-11-20T23:54:26.132Z,23.70
2018-11-20T23:56:55.253Z,25.07
2018-11-20T23:59:24.463Z,25.40
